Aérodrome :







RETROUVEZ-NOUS SUR...

 
LOGIN :

S'inscrire | Disclaimer

   EN    FR    IT 

 









Légende :    VFR   VFR Marginal   IFR   IFR Intensif   IFR Très Intensif
Visi : 
Plafond : 
>= 8 km
>= 3000ft
5 à 8 km
1000 à 3000 ft
1500m à 5 km
500 à 1000 ft
800 à 1500m
200 à 500 ft
< 800m
< 200 ft
Symboles :   Orages  Brouillard  Fortes neiges  Fortes précipitations  Vent > 20 kt






- Altitude de l'aérodrome : 160 ft
- Code IATA : YYR


CYYR - Goose Bay

DERNIER METAR :
  • 242200Z 26013G19KT 15SM OVC100 M17/M27 A3041 RMK AC8 SLP305

METARs EXPIRÉS :
  • 242100Z 27013KT 15SM FEW090 OVC120 M17/M28 A3040 RMK AC2AC6 SLP302
  • 242000Z 26014G22KT 15SM DRSN FEW060 FEW120 BKN230 M17/M28 A3040 RMK SC1AC2CI2 SLP300

TAF TAF CYYR
Valide du 24 à 18h jusqu'au 25 à 18h UTC


241730Z 2418/2518 28015G25KT P6SM FEW230
FM242100 25015G25KT P6SM BKN080
BECMG 2500/2502 25010KT
FM250300 25008KT P6SM SCT020 BKN050
FM251400 26010G20KT P6SM FEW020 SCT150 RMK NXT FCST BY 250000Z



MET'MAP, la Météo Aéronautique d'un coup d'oeil ! - Copyright ORBIFLY Décembre 2007 - Disclaimer

ORBIFLY MET'MAP TEAM :

Programmation & Développement : Alexandra Zaïnal
Sur une idée originale de : Baudouin d'Aumeries
Assistance à la programmation : Marc-Olivier Méhu
Soutien technique & logistique : Manuel Goepfert

Contact : metmap@orbifly.com




SOURCES & CREDITS :

   NOAA